createdAt,value
2023-04-02T00:00:54.018Z,8795.00
2023-04-02T00:01:54.121Z,8795.00
2023-04-02T00:02:54.201Z,8635.00
2023-04-02T00:03:54.345Z,8223.00
2023-04-02T00:04:54.229Z,7786.00
2023-04-02T00:05:54.159Z,7744.00
2023-04-02T00:06:54.230Z,7748.00
2023-04-02T00:07:54.223Z,7756.00
2023-04-02T00:08:54.193Z,7815.00
2023-04-02T00:09:54.244Z,7704.00
2023-04-02T00:10:54.161Z,7317.00
2023-04-02T00:11:54.164Z,7777.00
2023-04-02T00:12:54.128Z,7837.00
2023-04-02T00:13:54.182Z,7842.00
2023-04-02T00:14:54.120Z,7865.00
2023-04-02T00:15:54.129Z,7863.00
2023-04-02T00:16:54.139Z,7870.00
2023-04-02T00:17:54.175Z,7757.00
2023-04-02T00:18:54.207Z,7685.00
2023-04-02T00:19:54.126Z,7819.00
2023-04-02T00:20:54.128Z,7891.00
2023-04-02T00:21:54.161Z,8019.00
2023-04-02T00:22:54.079Z,7921.00
2023-04-02T00:23:54.092Z,7898.00
2023-04-02T00:24:54.052Z,8139.00
2023-04-02T00:25:54.087Z,8152.00
2023-04-02T00:26:54.174Z,8156.00
2023-04-02T00:27:54.104Z,7554.00
2023-04-02T00:28:54.785Z,7447.00
2023-04-02T00:29:54.121Z,7528.00
2023-04-02T00:30:54.034Z,7663.00
2023-04-02T00:31:54.116Z,7741.00
2023-04-02T00:32:54.174Z,8225.00
2023-04-02T00:33:54.055Z,8573.00
2023-04-02T00:34:54.915Z,8664.00
2023-04-02T00:35:54.109Z,8593.00
2023-04-02T00:36:53.992Z,8472.00
2023-04-02T00:37:54.019Z,8404.00
2023-04-02T00:38:54.005Z,8269.00
2023-04-02T00:39:53.965Z,8214.00
2023-04-02T00:40:54.009Z,7893.00
2023-04-02T00:41:53.993Z,7856.00
2023-04-02T00:43:01.553Z,7820.00
2023-04-02T00:43:53.958Z,7799.00
2023-04-02T00:44:54.011Z,7799.00
2023-04-02T00:45:53.998Z,7822.00
2023-04-02T00:46:53.958Z,7840.00
2023-04-02T00:47:53.975Z,7895.00
2023-04-02T00:48:53.977Z,7931.00
2023-04-02T00:49:53.939Z,7756.00
2023-04-02T00:50:53.957Z,7608.00
2023-04-02T00:51:53.943Z,7550.00
2023-04-02T00:52:53.945Z,7551.00
2023-04-02T00:53:54.925Z,7510.00
2023-04-02T00:54:53.871Z,7514.00
2023-04-02T00:55:53.853Z,7527.00
2023-04-02T00:56:53.914Z,7303.00
2023-04-02T00:57:53.944Z,7323.00
2023-04-02T00:58:53.847Z,7328.00
2023-04-02T00:59:53.851Z,7514.00
2023-04-02T01:00:53.865Z,7280.00
2023-04-02T01:01:53.808Z,7029.00
2023-04-02T01:02:53.978Z,6974.00
2023-04-02T01:03:53.913Z,7050.00
2023-04-02T01:04:53.845Z,7154.00
2023-04-02T01:05:53.929Z,7251.00
2023-04-02T01:06:53.854Z,7270.00
2023-04-02T01:07:53.907Z,7420.00
2023-04-02T01:08:53.835Z,7491.00
2023-04-02T01:09:54.387Z,7561.00
2023-04-02T01:10:53.860Z,7570.00
2023-04-02T01:11:53.882Z,7444.00
2023-04-02T01:12:53.877Z,7399.00
2023-04-02T01:13:53.868Z,7162.00
2023-04-02T01:14:53.868Z,7291.00
2023-04-02T01:15:53.957Z,7244.00
2023-04-02T01:16:54.113Z,7264.00
2023-04-02T01:17:53.919Z,7274.00
2023-04-02T01:18:53.975Z,7342.00
2023-04-02T01:19:53.924Z,7357.00
2023-04-02T01:20:53.945Z,7273.00
2023-04-02T01:21:53.954Z,7196.00
2023-04-02T01:22:54.002Z,7248.00
2023-04-02T01:23:54.006Z,7313.00
2023-04-02T01:24:53.958Z,7331.00
2023-04-02T01:25:53.966Z,7492.00
2023-04-02T01:26:53.968Z,7551.00
2023-04-02T01:27:53.967Z,7572.00
2023-04-02T01:28:53.966Z,7574.00
2023-04-02T01:29:54.051Z,7573.00
2023-04-02T01:30:54.004Z,7583.00
2023-04-02T01:31:53.940Z,7597.00
2023-04-02T01:32:54.020Z,7534.00
2023-04-02T01:33:53.932Z,7560.00
2023-04-02T01:34:54.017Z,7361.00
2023-04-02T01:35:53.960Z,7437.00
2023-04-02T01:36:53.861Z,7465.00
2023-04-02T01:37:53.899Z,7380.00
2023-04-02T01:38:53.885Z,7407.00
2023-04-02T01:39:53.891Z,7506.00
2023-04-02T01:40:53.919Z,7564.00
2023-04-02T01:41:53.879Z,7635.00
2023-04-02T01:42:53.879Z,7640.00
2023-04-02T01:43:54.398Z,7439.00
2023-04-02T01:44:53.894Z,7293.00
2023-04-02T01:45:53.878Z,7293.00
2023-04-02T01:46:55.257Z,7065.00
2023-04-02T01:47:53.980Z,6988.00
2023-04-02T01:48:53.982Z,7083.00
2023-04-02T01:49:53.911Z,7169.00
2023-04-02T01:50:53.896Z,7282.00
2023-04-02T01:51:53.874Z,7477.00
2023-04-02T01:52:54.352Z,7404.00
2023-04-02T01:53:53.902Z,7260.00
2023-04-02T01:54:53.881Z,7045.00
2023-04-02T01:55:53.869Z,6959.00
2023-04-02T01:56:53.994Z,6962.00
2023-04-02T01:57:53.976Z,6972.00
2023-04-02T01:58:53.881Z,7114.00
2023-04-02T01:59:53.976Z,7321.00
2023-04-02T02:00:53.962Z,7516.00
2023-04-02T02:01:53.897Z,7376.00
2023-04-02T02:02:53.948Z,7163.00
2023-04-02T02:03:53.907Z,7020.00
2023-04-02T02:04:53.895Z,6981.00
2023-04-02T02:05:53.907Z,7010.00
2023-04-02T02:06:53.833Z,7016.00
2023-04-02T02:07:53.922Z,6978.00
2023-04-02T02:08:54.025Z,6986.00
2023-04-02T02:09:54.009Z,7061.00
2023-04-02T02:10:54.074Z,7115.00
2023-04-02T02:11:54.012Z,7914.00
2023-04-02T02:12:54.042Z,8289.00
2023-04-02T02:13:54.097Z,8532.00
2023-04-02T02:14:54.184Z,8663.00
2023-04-02T02:15:54.133Z,8676.00
2023-04-02T02:16:54.180Z,8609.00
2023-04-02T02:17:54.338Z,8504.00
2023-04-02T02:18:54.198Z,8554.00
2023-04-02T02:19:54.212Z,8528.00
2023-04-02T02:20:54.169Z,8499.00
2023-04-02T02:21:54.249Z,8621.00
2023-04-02T02:22:54.206Z,8781.00
2023-04-02T02:23:54.177Z,8711.00
2023-04-02T02:24:55.014Z,8608.00
2023-04-02T02:25:54.207Z,8247.00
2023-04-02T02:26:54.265Z,8319.00
2023-04-02T02:27:54.957Z,8388.00
2023-04-02T02:28:54.274Z,8311.00
2023-04-02T02:29:54.292Z,8266.00
2023-04-02T02:30:54.213Z,8270.00
2023-04-02T02:31:54.190Z,8247.00
2023-04-02T02:32:54.370Z,8230.00
2023-04-02T02:33:54.210Z,8074.00
2023-04-02T02:34:54.202Z,8048.00
2023-04-02T02:35:54.161Z,8083.00
2023-04-02T02:36:54.200Z,8144.00
2023-04-02T02:37:54.277Z,8174.00
2023-04-02T02:38:54.520Z,8240.00
2023-04-02T02:39:54.361Z,8228.00
2023-04-02T02:40:54.369Z,8239.00
2023-04-02T02:41:54.386Z,8249.00
2023-04-02T02:42:54.487Z,8213.00
2023-04-02T02:43:54.516Z,8190.00
2023-04-02T02:44:54.589Z,8080.00
2023-04-02T02:45:54.633Z,7997.00
2023-04-02T02:46:54.650Z,7970.00
2023-04-02T02:47:54.738Z,7991.00
2023-04-02T02:48:54.742Z,7861.00
2023-04-02T02:49:54.690Z,7741.00
2023-04-02T02:50:54.656Z,7823.00
2023-04-02T02:51:54.786Z,7898.00
2023-04-02T02:52:54.953Z,7977.00
2023-04-02T02:53:54.866Z,7979.00
2023-04-02T02:54:54.885Z,7980.00
2023-04-02T02:55:54.888Z,7900.00
2023-04-02T02:56:55.014Z,7914.00
2023-04-02T02:57:54.856Z,7920.00
2023-04-02T02:58:54.919Z,7935.00
2023-04-02T02:59:54.840Z,7852.00
2023-04-02T03:00:54.861Z,7715.00
2023-04-02T03:01:54.829Z,7842.00
2023-04-02T03:02:55.061Z,7931.00
2023-04-02T03:03:55.016Z,7983.00
2023-04-02T03:04:54.980Z,8026.00
2023-04-02T03:05:54.965Z,8021.00
2023-04-02T03:06:55.067Z,8016.00
2023-04-02T03:07:55.105Z,8014.00
2023-04-02T03:08:55.137Z,7998.00
2023-04-02T03:09:55.181Z,7973.00
2023-04-02T03:10:55.184Z,8023.00
2023-04-02T03:11:55.222Z,8048.00
2023-04-02T03:12:55.222Z,8094.00
2023-04-02T03:13:55.212Z,8162.00
2023-04-02T03:14:55.228Z,8158.00
2023-04-02T03:15:55.267Z,8151.00
2023-04-02T03:16:55.235Z,8135.00
2023-04-02T03:17:55.342Z,8088.00
2023-04-02T03:18:55.280Z,8054.00
2023-04-02T03:19:55.300Z,8016.00
2023-04-02T03:20:55.256Z,7967.00
2023-04-02T03:21:55.304Z,7942.00
2023-04-02T03:22:55.324Z,7804.00
2023-04-02T03:23:55.305Z,7630.00
2023-04-02T03:24:55.315Z,7503.00
2023-04-02T03:25:55.318Z,7659.00
2023-04-02T03:26:55.411Z,7965.00
2023-04-02T03:27:55.340Z,7975.00
2023-04-02T03:28:55.349Z,7935.00
2023-04-02T03:29:55.414Z,7907.00
2023-04-02T03:30:55.403Z,7894.00
2023-04-02T03:31:55.360Z,7905.00
2023-04-02T03:32:55.401Z,7982.00
2023-04-02T03:33:55.377Z,7956.00
2023-04-02T03:34:55.361Z,7959.00
2023-04-02T03:35:55.344Z,8013.00
2023-04-02T03:36:55.359Z,8001.00
2023-04-02T03:37:55.316Z,8014.00
2023-04-02T03:38:55.301Z,8030.00
2023-04-02T03:39:55.336Z,8117.00
2023-04-02T03:40:55.345Z,8224.00
2023-04-02T03:41:55.329Z,8400.00
2023-04-02T03:42:55.414Z,8380.00
2023-04-02T03:43:55.296Z,8322.00
2023-04-02T03:44:55.295Z,8324.00
2023-04-02T03:45:55.315Z,8336.00
2023-04-02T03:46:55.281Z,8360.00
2023-04-02T03:47:55.290Z,8416.00
2023-04-02T03:48:55.363Z,8472.00
2023-04-02T03:49:55.261Z,8462.00
2023-04-02T03:50:55.263Z,8467.00
2023-04-02T03:51:55.294Z,8562.00
2023-04-02T03:52:55.236Z,8691.00
2023-04-02T03:53:55.280Z,8520.00
2023-04-02T03:54:55.284Z,8281.00
2023-04-02T03:55:55.278Z,8216.00
2023-04-02T03:56:55.410Z,8004.00
2023-04-02T03:57:55.323Z,8218.00
2023-04-02T03:58:55.337Z,8294.00
2023-04-02T03:59:55.270Z,8355.00
2023-04-02T04:00:55.248Z,8315.00
2023-04-02T04:01:55.363Z,8299.00
2023-04-02T04:02:55.374Z,8264.00
2023-04-02T04:03:55.336Z,8250.00
2023-04-02T04:04:55.346Z,8344.00
2023-04-02T04:05:55.236Z,8377.00
2023-04-02T04:06:55.216Z,8364.00
2023-04-02T04:07:55.220Z,8428.00
2023-04-02T04:08:55.282Z,8462.00
2023-04-02T04:09:55.333Z,8511.00
2023-04-02T04:10:55.445Z,8471.00
2023-04-02T04:11:55.413Z,8445.00
2023-04-02T04:12:55.445Z,8439.00
2023-04-02T04:13:55.452Z,8549.00
2023-04-02T04:14:55.553Z,8525.00
2023-04-02T04:15:55.550Z,8488.00
2023-04-02T04:16:55.702Z,8453.00
2023-04-02T04:17:55.616Z,8356.00
2023-04-02T04:18:55.547Z,8269.00
2023-04-02T04:19:55.537Z,8213.00
2023-04-02T04:20:55.492Z,8265.00
2023-04-02T04:21:55.552Z,8302.00
2023-04-02T04:22:55.466Z,8302.00
2023-04-02T04:23:55.478Z,8298.00
2023-04-02T04:24:55.493Z,8330.00
2023-04-02T04:25:55.448Z,8389.00
2023-04-02T04:26:55.486Z,8363.00
2023-04-02T04:27:55.448Z,8376.00
2023-04-02T04:28:55.431Z,8345.00
2023-04-02T04:29:56.411Z,8346.00
2023-04-02T04:30:55.437Z,8351.00
2023-04-02T04:31:55.655Z,8368.00
2023-04-02T04:32:55.452Z,8417.00
2023-04-02T04:33:55.450Z,8484.00
2023-04-02T04:34:55.427Z,8491.00
2023-04-02T04:35:55.398Z,8391.00
2023-04-02T04:36:55.382Z,8294.00
2023-04-02T04:37:55.488Z,8192.00
2023-04-02T04:38:55.388Z,8121.00
2023-04-02T04:39:55.406Z,8122.00
2023-04-02T04:40:55.403Z,8126.00
2023-04-02T04:41:55.406Z,8146.00
2023-04-02T04:42:55.333Z,8194.00
2023-04-02T04:43:55.373Z,8287.00
2023-04-02T04:44:55.445Z,8298.00
2023-04-02T04:45:55.377Z,8309.00
2023-04-02T04:46:55.348Z,8328.00
2023-04-02T04:47:55.391Z,8302.00
2023-04-02T04:48:55.968Z,8294.00
2023-04-02T04:49:55.425Z,8275.00
2023-04-02T04:50:55.418Z,8225.00
2023-04-02T04:51:55.547Z,8232.00
2023-04-02T04:52:55.498Z,8238.00
2023-04-02T04:53:55.527Z,8240.00
2023-04-02T04:54:55.475Z,8247.00
2023-04-02T04:55:55.573Z,8249.00
2023-04-02T04:56:55.449Z,8253.00
2023-04-02T04:57:55.537Z,8260.00
2023-04-02T04:58:55.548Z,8224.00
2023-04-02T04:59:55.455Z,8230.00
2023-04-02T05:00:55.432Z,8238.00
2023-04-02T05:01:55.499Z,8087.00
2023-04-02T05:02:55.417Z,8043.00
2023-04-02T05:03:55.464Z,8007.00
2023-04-02T05:04:55.508Z,7973.00
2023-04-02T05:05:55.391Z,7898.00
2023-04-02T05:06:55.413Z,7899.00
2023-04-02T05:07:56.759Z,7940.00
2023-04-02T05:08:55.529Z,7934.00
2023-04-02T05:09:55.625Z,7916.00
2023-04-02T05:10:55.709Z,7874.00
2023-04-02T05:11:55.693Z,7847.00
2023-04-02T05:12:55.759Z,7891.00
2023-04-02T05:13:55.856Z,7917.00
2023-04-02T05:14:55.857Z,7950.00
2023-04-02T05:15:55.836Z,7874.00
2023-04-02T05:16:55.792Z,7873.00
2023-04-02T05:17:55.891Z,7915.00
2023-04-02T05:18:55.786Z,7948.00
2023-04-02T05:19:55.860Z,7980.00
2023-04-02T05:20:55.757Z,8002.00
2023-04-02T05:21:55.827Z,8061.00
2023-04-02T05:22:55.810Z,8071.00
2023-04-02T05:23:55.768Z,8135.00
2023-04-02T05:24:55.784Z,8191.00
2023-04-02T05:25:55.754Z,8179.00
2023-04-02T05:26:55.743Z,8202.00
2023-04-02T05:27:55.837Z,8175.00
2023-04-02T05:28:55.758Z,8126.00
2023-04-02T05:29:55.706Z,8075.00
2023-04-02T05:30:55.777Z,8005.00
2023-04-02T05:31:55.823Z,7999.00
2023-04-02T05:32:55.831Z,7909.00
2023-04-02T05:33:55.826Z,7871.00
2023-04-02T05:34:55.872Z,7890.00
2023-04-02T05:35:55.904Z,7810.00
2023-04-02T05:36:55.816Z,7663.00
2023-04-02T05:37:55.873Z,7626.00
2023-04-02T05:38:56.004Z,7612.00
2023-04-02T05:39:55.931Z,7615.00
2023-04-02T05:40:55.950Z,7622.00
2023-04-02T05:41:56.004Z,7652.00
2023-04-02T05:42:56.580Z,7682.00
2023-04-02T05:43:56.163Z,7678.00
2023-04-02T05:44:56.237Z,7691.00
2023-04-02T05:45:56.303Z,7531.00
2023-04-02T05:46:56.475Z,7503.00
2023-04-02T05:47:56.443Z,7918.00
2023-04-02T05:48:56.495Z,7926.00
2023-04-02T05:49:56.521Z,7893.00
2023-04-02T05:50:56.526Z,7872.00
2023-04-02T05:51:57.611Z,7914.00
2023-04-02T05:52:56.588Z,7895.00
2023-04-02T05:53:56.624Z,7915.00
2023-04-02T05:54:56.688Z,7893.00
2023-04-02T05:55:56.662Z,7895.00
2023-04-02T05:56:56.730Z,7890.00
2023-04-02T05:58:21.229Z,7896.00
2023-04-02T05:58:57.733Z,7893.00
2023-04-02T05:59:56.661Z,7894.00
2023-04-02T06:00:56.632Z,7891.00
2023-04-02T06:01:56.658Z,7881.00
2023-04-02T06:02:56.780Z,7859.00
2023-04-02T06:03:56.752Z,7868.00
2023-04-02T06:04:56.733Z,7870.00
2023-04-02T06:05:56.658Z,7877.00
2023-04-02T06:06:56.685Z,7884.00
2023-04-02T06:07:56.636Z,7882.00
2023-04-02T06:08:56.642Z,7867.00
2023-04-02T06:09:56.636Z,7855.00
2023-04-02T06:10:57.676Z,7817.00
2023-04-02T06:11:56.768Z,7757.00
2023-04-02T06:12:56.742Z,7759.00
2023-04-02T06:13:56.697Z,7774.00
2023-04-02T06:14:56.751Z,7795.00
2023-04-02T06:15:56.752Z,7777.00
2023-04-02T06:16:56.803Z,7760.00
2023-04-02T06:17:56.726Z,7725.00
2023-04-02T06:18:56.688Z,7700.00
2023-04-02T06:19:56.767Z,7702.00
2023-04-02T06:20:56.672Z,7701.00
2023-04-02T06:21:56.631Z,7705.00
2023-04-02T06:22:56.633Z,7674.00
2023-04-02T06:23:56.786Z,7585.00
2023-04-02T06:24:56.655Z,7647.00
2023-04-02T06:25:56.612Z,7671.00
2023-04-02T06:26:56.671Z,7696.00
2023-04-02T06:27:56.630Z,7710.00
2023-04-02T06:28:56.726Z,7766.00
2023-04-02T06:29:56.640Z,7582.00
2023-04-02T06:30:56.627Z,7656.00
2023-04-02T06:31:56.584Z,7544.00
2023-04-02T06:32:56.634Z,7392.00
2023-04-02T06:33:56.606Z,7432.00
2023-04-02T06:34:56.789Z,7472.00
2023-04-02T06:35:56.690Z,7454.00
2023-04-02T06:36:56.689Z,7476.00
2023-04-02T06:37:56.699Z,7514.00
2023-04-02T06:38:56.754Z,7344.00
2023-04-02T06:39:56.794Z,7271.00
2023-04-02T06:40:58.745Z,7054.00
2023-04-02T06:41:56.800Z,7125.00
2023-04-02T06:42:56.922Z,6843.00
2023-04-02T06:43:56.931Z,6948.00
2023-04-02T06:44:56.992Z,7111.00
2023-04-02T06:45:56.986Z,7123.00
2023-04-02T06:46:58.004Z,7124.00
2023-04-02T06:47:57.182Z,7074.00
2023-04-02T06:48:57.085Z,7042.00
2023-04-02T06:49:57.128Z,7099.00
2023-04-02T06:50:57.019Z,7072.00
2023-04-02T06:51:56.998Z,7003.00
2023-04-02T06:52:57.103Z,7148.00
2023-04-02T06:53:57.018Z,7170.00
2023-04-02T06:54:57.068Z,7068.00
2023-04-02T06:55:57.089Z,6840.00
2023-04-02T06:56:56.962Z,6754.00
2023-04-02T06:57:56.980Z,6764.00
2023-04-02T06:58:56.984Z,6595.00
2023-04-02T06:59:56.955Z,6597.00
2023-04-02T07:00:57.444Z,6617.00
2023-04-02T07:01:57.032Z,6662.00
2023-04-02T07:02:57.067Z,6600.00
2023-04-02T07:03:56.981Z,6634.00
2023-04-02T07:04:57.025Z,6676.00
2023-04-02T07:05:56.914Z,6692.00
2023-04-02T07:06:56.922Z,6351.00
2023-04-02T07:07:56.996Z,6779.00
2023-04-02T07:08:56.913Z,6661.00
2023-04-02T07:09:56.873Z,6665.00
2023-04-02T07:10:56.845Z,6667.00
2023-04-02T07:11:56.876Z,6664.00
2023-04-02T07:12:56.882Z,6734.00
2023-04-02T07:13:56.871Z,6730.00
2023-04-02T07:14:56.849Z,6661.00
2023-04-02T07:15:56.864Z,6523.00
2023-04-02T07:16:56.939Z,6496.00
2023-04-02T07:17:56.889Z,6541.00
2023-04-02T07:18:56.818Z,6440.00
2023-04-02T07:19:56.847Z,6452.00
2023-04-02T07:20:56.817Z,6404.00
2023-04-02T07:21:56.841Z,6211.00
2023-04-02T07:22:56.847Z,5956.00
2023-04-02T07:23:56.887Z,5475.00
2023-04-02T07:24:56.821Z,5485.00
2023-04-02T07:25:56.817Z,5531.00
2023-04-02T07:26:56.789Z,5599.00
2023-04-02T07:27:56.813Z,5712.00
2023-04-02T07:28:56.805Z,5554.00
2023-04-02T07:29:56.800Z,5199.00
2023-04-02T07:30:56.781Z,5317.00
2023-04-02T07:31:56.858Z,5319.00
2023-04-02T07:32:56.900Z,5340.00
2023-04-02T07:33:56.872Z,5359.00
2023-04-02T07:34:56.798Z,5419.00
2023-04-02T07:35:56.812Z,5376.00
2023-04-02T07:36:56.772Z,5337.00
2023-04-02T07:37:56.801Z,5410.00
2023-04-02T07:38:56.831Z,5241.00
2023-04-02T07:39:56.744Z,5202.00
2023-04-02T07:40:56.789Z,4998.00
2023-04-02T07:41:56.790Z,5003.00
2023-04-02T07:42:56.824Z,5175.00
2023-04-02T07:43:56.845Z,5325.00
2023-04-02T07:44:56.878Z,5388.00
2023-04-02T07:45:56.910Z,5319.00
2023-04-02T07:46:56.960Z,5206.00
2023-04-02T07:47:56.979Z,5127.00
2023-04-02T07:48:57.021Z,5109.00
2023-04-02T07:49:57.124Z,4855.00
2023-04-02T07:50:57.030Z,4864.00
2023-04-02T07:51:57.023Z,4868.00
2023-04-02T07:52:57.038Z,4966.00
2023-04-02T07:53:57.051Z,5095.00
2023-04-02T07:54:57.068Z,5328.00
2023-04-02T07:55:57.050Z,5232.00
2023-04-02T07:56:57.098Z,5052.00
2023-04-02T07:57:57.131Z,5002.00
2023-04-02T07:58:57.042Z,4999.00
2023-04-02T07:59:57.159Z,4925.00
2023-04-02T08:00:57.071Z,4548.00
2023-04-02T08:01:57.118Z,4498.00
2023-04-02T08:02:57.239Z,4384.00
2023-04-02T08:03:57.031Z,4262.00
2023-04-02T08:04:57.065Z,4140.00
2023-04-02T08:05:56.903Z,4728.00
2023-04-02T08:06:56.922Z,4429.00
2023-04-02T08:07:57.080Z,4377.00
2023-04-02T08:08:57.009Z,4189.00
2023-04-02T08:09:56.924Z,4562.00
2023-04-02T08:10:57.462Z,4242.00
2023-04-02T08:11:57.636Z,4737.00
2023-04-02T08:12:56.964Z,4357.00
2023-04-02T08:13:56.924Z,4119.00
2023-04-02T08:14:56.969Z,3418.00
2023-04-02T08:15:56.878Z,3299.00
2023-04-02T08:16:56.921Z,2538.00
2023-04-02T08:17:57.005Z,2520.00
2023-04-02T08:18:56.910Z,2273.00
2023-04-02T08:19:56.878Z,2296.00
2023-04-02T08:20:56.991Z,1934.00
2023-04-02T08:21:56.869Z,1871.00
2023-04-02T08:22:56.951Z,1967.00
2023-04-02T08:23:56.970Z,2467.00
2023-04-02T08:24:56.958Z,2730.00
2023-04-02T08:25:56.950Z,2732.00
2023-04-02T08:26:56.960Z,2752.00
2023-04-02T08:27:57.486Z,2824.00
2023-04-02T08:28:57.016Z,2889.00
2023-04-02T08:29:57.283Z,3011.00
2023-04-02T08:30:56.993Z,3187.00
2023-04-02T08:31:56.963Z,2824.00
2023-04-02T08:32:57.017Z,1852.00
2023-04-02T08:33:56.971Z,1483.00
2023-04-02T08:34:56.980Z,1400.00
2023-04-02T08:35:56.916Z,1545.00
2023-04-02T08:36:56.847Z,1573.00
2023-04-02T08:37:56.917Z,1703.00
2023-04-02T08:38:56.973Z,1833.00
2023-04-02T08:39:56.856Z,1977.00
2023-04-02T08:40:57.751Z,2229.00
2023-04-02T08:41:56.950Z,2271.00
2023-04-02T08:42:56.955Z,1990.00
2023-04-02T08:43:56.997Z,1974.00
2023-04-02T08:44:57.199Z,1794.00
2023-04-02T08:45:57.194Z,2056.00
2023-04-02T08:46:57.169Z,2057.00
2023-04-02T08:47:57.241Z,2064.00
2023-04-02T08:48:57.220Z,2123.00
2023-04-02T08:49:57.123Z,2124.00
2023-04-02T08:50:57.072Z,2671.00
2023-04-02T08:51:57.097Z,2679.00
2023-04-02T08:52:57.086Z,4010.00
2023-04-02T08:53:58.069Z,3157.00
2023-04-02T08:54:57.067Z,2726.00
2023-04-02T08:55:58.004Z,2234.00
2023-04-02T08:56:57.931Z,2125.00
2023-04-02T08:57:57.093Z,2016.00
2023-04-02T08:58:56.981Z,1784.00
2023-04-02T08:59:57.046Z,1855.00
2023-04-02T09:00:57.023Z,1857.00
2023-04-02T09:01:57.060Z,1885.00
2023-04-02T09:02:57.023Z,1859.00
2023-04-02T09:03:57.014Z,1821.00
2023-04-02T09:04:57.057Z,1807.00
2023-04-02T09:05:57.092Z,1872.00
2023-04-02T09:06:56.940Z,2174.00
2023-04-02T09:07:57.031Z,2533.00
2023-04-02T09:08:56.977Z,2327.00
2023-04-02T09:09:56.944Z,1628.00
2023-04-02T09:10:56.970Z,1220.00
2023-04-02T09:11:56.945Z,1118.00
2023-04-02T09:12:56.962Z,1221.00
2023-04-02T09:13:56.935Z,1290.00
2023-04-02T09:14:57.462Z,1340.00
2023-04-02T09:15:56.918Z,1483.00
2023-04-02T09:16:56.907Z,1554.00
2023-04-02T09:17:58.986Z,1262.00
2023-04-02T09:18:56.906Z,1228.00
2023-04-02T09:19:56.950Z,1444.00
2023-04-02T09:20:56.961Z,1301.00
2023-04-02T09:21:56.919Z,1142.00
2023-04-02T09:22:56.937Z,913.00
2023-04-02T09:23:57.002Z,1136.00
2023-04-02T09:24:56.855Z,848.00
2023-04-02T09:26:04.184Z,613.00
2023-04-02T09:26:57.881Z,615.00
2023-04-02T09:27:56.871Z,495.00
2023-04-02T09:28:56.869Z,493.00
2023-04-02T09:29:56.894Z,590.00
2023-04-02T09:30:56.852Z,1083.00
2023-04-02T09:31:56.902Z,639.00
2023-04-02T09:32:57.038Z,730.00
2023-04-02T09:33:56.949Z,513.00
2023-04-02T09:34:56.849Z,507.00
2023-04-02T09:35:56.861Z,404.00
2023-04-02T09:36:56.834Z,498.00
2023-04-02T09:37:56.769Z,540.00
2023-04-02T09:38:56.902Z,581.00
2023-04-02T09:39:56.846Z,533.00
2023-04-02T09:40:56.825Z,537.00
2023-04-02T09:42:04.915Z,576.00
2023-04-02T09:42:57.752Z,564.00
2023-04-02T09:43:56.778Z,588.00
2023-04-02T09:44:56.772Z,613.00
2023-04-02T09:45:56.759Z,768.00
2023-04-02T09:46:56.812Z,596.00
2023-04-02T09:47:56.782Z,611.00
2023-04-02T09:48:56.710Z,483.00
2023-04-02T09:49:56.722Z,441.00
2023-04-02T09:50:56.953Z,532.00
2023-04-02T09:51:56.796Z,650.00
2023-04-02T09:52:56.858Z,604.00
2023-04-02T09:53:56.894Z,629.00
2023-04-02T09:54:56.894Z,414.00
2023-04-02T09:55:56.899Z,511.00
2023-04-02T09:56:56.989Z,500.00
2023-04-02T09:57:57.014Z,447.00
2023-04-02T09:58:57.103Z,400.00
2023-04-02T09:59:57.060Z,455.00
2023-04-02T10:00:57.117Z,609.00
2023-04-02T10:01:57.101Z,595.00
2023-04-02T10:02:57.145Z,510.00
2023-04-02T10:03:57.226Z,523.00
2023-04-02T10:04:57.184Z,650.00
2023-04-02T10:05:57.280Z,674.00
2023-04-02T10:06:57.247Z,721.00
2023-04-02T10:07:57.242Z,1230.00
2023-04-02T10:08:57.313Z,1415.00
2023-04-02T10:09:57.354Z,1133.00
2023-04-02T10:10:57.318Z,979.00
2023-04-02T10:11:57.261Z,1123.00
2023-04-02T10:12:57.291Z,1161.00
2023-04-02T10:13:57.289Z,1177.00
2023-04-02T10:14:57.356Z,1641.00
2023-04-02T10:15:57.365Z,1103.00
2023-04-02T10:16:57.383Z,885.00
2023-04-02T10:17:57.324Z,976.00
2023-04-02T10:18:57.460Z,974.00
2023-04-02T10:19:57.488Z,836.00
2023-04-02T10:20:57.443Z,725.00
2023-04-02T10:21:57.584Z,578.00
2023-04-02T10:22:57.589Z,610.00
2023-04-02T10:23:57.720Z,941.00
2023-04-02T10:24:57.761Z,3409.00
2023-04-02T10:25:57.782Z,1862.00
2023-04-02T10:26:57.842Z,1470.00
2023-04-02T10:27:57.790Z,624.00
2023-04-02T10:28:57.971Z,466.00
2023-04-02T10:29:57.877Z,467.00
2023-04-02T10:30:58.009Z,510.00
2023-04-02T10:31:58.024Z,516.00
2023-04-02T10:32:57.968Z,400.00
2023-04-02T10:33:57.959Z,400.00
2023-04-02T10:34:58.005Z,400.00
2023-04-02T10:35:58.018Z,400.00
2023-04-02T10:36:57.943Z,456.00
2023-04-02T10:37:57.945Z,529.00
2023-04-02T10:38:57.984Z,715.00
2023-04-02T10:39:57.949Z,1400.00
2023-04-02T10:40:57.958Z,2600.00
2023-04-02T10:41:57.977Z,1589.00
2023-04-02T10:42:58.023Z,1737.00
2023-04-02T10:44:06.163Z,1599.00
2023-04-02T10:44:58.982Z,1609.00
2023-04-02T10:45:58.038Z,1608.00
2023-04-02T10:46:58.037Z,1568.00
2023-04-02T10:47:57.964Z,1642.00
2023-04-02T10:48:58.042Z,1872.00
2023-04-02T10:49:58.003Z,1883.00
2023-04-02T10:50:58.008Z,1857.00
2023-04-02T10:51:58.033Z,1344.00
2023-04-02T10:52:58.055Z,1174.00
2023-04-02T10:53:58.022Z,1512.00
2023-04-02T10:54:58.083Z,1509.00
2023-04-02T10:55:58.169Z,1585.00
2023-04-02T10:56:58.295Z,1717.00
2023-04-02T10:57:58.134Z,2068.00
2023-04-02T10:58:58.216Z,2090.00
2023-04-02T10:59:58.269Z,2191.00
2023-04-02T11:00:58.223Z,2483.00
2023-04-02T11:01:58.329Z,2650.00
2023-04-02T11:02:58.344Z,2284.00
2023-04-02T11:03:58.464Z,2038.00
2023-04-02T11:04:59.920Z,1873.00
2023-04-02T11:05:58.461Z,1889.00
2023-04-02T11:07:11.172Z,2219.00
2023-04-02T11:07:59.453Z,2229.00
2023-04-02T11:08:58.431Z,2317.00
2023-04-02T11:09:58.392Z,2424.00
2023-04-02T11:10:58.400Z,2457.00
2023-04-02T11:11:58.394Z,2350.00
2023-04-02T11:12:58.356Z,1280.00
2023-04-02T11:13:58.413Z,1365.00
2023-04-02T11:14:58.353Z,1021.00
2023-04-02T11:15:58.459Z,1258.00
2023-04-02T11:16:58.346Z,1044.00
2023-04-02T11:17:58.426Z,855.00
2023-04-02T11:18:58.477Z,773.00
2023-04-02T11:19:58.472Z,866.00
2023-04-02T11:20:58.475Z,1104.00
2023-04-02T11:21:59.887Z,921.00
2023-04-02T11:22:58.590Z,1357.00
2023-04-02T11:23:58.624Z,622.00
2023-04-02T11:24:58.697Z,731.00
2023-04-02T11:25:58.703Z,703.00
2023-04-02T11:26:58.730Z,749.00
2023-04-02T11:27:58.801Z,626.00
2023-04-02T11:28:58.837Z,574.00
2023-04-02T11:29:58.853Z,650.00
2023-04-02T11:30:58.910Z,636.00
2023-04-02T11:31:58.939Z,605.00
2023-04-02T11:32:59.023Z,776.00
2023-04-02T11:33:59.024Z,739.00
2023-04-02T11:35:06.370Z,643.00
2023-04-02T11:36:00.057Z,653.00
2023-04-02T11:36:58.992Z,687.00
2023-04-02T11:37:58.993Z,884.00
2023-04-02T11:39:04.603Z,936.00
2023-04-02T11:39:58.960Z,598.00
2023-04-02T11:40:59.061Z,642.00
2023-04-02T11:41:59.020Z,540.00
2023-04-02T11:42:58.973Z,636.00
2023-04-02T11:43:58.979Z,657.00
2023-04-02T11:44:59.012Z,732.00
2023-04-02T11:45:59.308Z,715.00
2023-04-02T11:46:59.059Z,1064.00
2023-04-02T11:48:00.033Z,644.00
2023-04-02T11:48:58.920Z,666.00
2023-04-02T11:49:58.985Z,484.00
2023-04-02T11:50:58.999Z,518.00
2023-04-02T11:52:10.932Z,695.00
2023-04-02T11:52:58.907Z,801.00
2023-04-02T11:53:58.925Z,756.00
2023-04-02T11:54:58.894Z,1108.00
2023-04-02T11:55:58.879Z,1333.00
2023-04-02T11:56:58.995Z,1080.00
2023-04-02T11:57:58.940Z,1115.00
2023-04-02T11:58:58.904Z,1072.00
2023-04-02T11:59:58.849Z,1381.00
2023-04-02T12:00:58.887Z,1088.00
2023-04-02T12:01:58.932Z,848.00
2023-04-02T12:02:58.882Z,1095.00
2023-04-02T12:03:58.903Z,1113.00
2023-04-02T12:04:58.926Z,1123.00
2023-04-02T12:05:58.875Z,1007.00
2023-04-02T12:06:58.868Z,2894.00
2023-04-02T12:07:58.920Z,2265.00
2023-04-02T12:08:58.890Z,1834.00